Time;durP1;ratioP1;P1;durP2;ratioP2;P2;SDS_P1;SDS_P2;PMS_P1;PMS_P2;Temp;Humidity;BMP_temperature;BMP_pressure;BME280_temperature;BME280_humidity;BME280_pressure;Samples;Min_cycle;Max_cycle;Signal;HPM_P1;HPM_P2
2021/04/26 00:00:09;;;;;;;5.45;2.33;;;;;;;15.11;55.36;101641.86;1665444;85;21167;-48
2021/04/26 00:02:42;;;;;;;4.42;2.08;;;;;;;15.12;55.23;101643.60;1655108;85;21211;-48
2021/04/26 00:05:13;;;;;;;5.67;2.25;;;;;;;15.09;55.28;101637.11;1668148;85;21587;-48
2021/04/26 00:07:41;;;;;;;3.35;1.90;;;;;;;15.10;55.34;101631.85;1665459;85;21222;-48
2021/04/26 00:10:13;;;;;;;3.67;2.00;;;;;;;15.07;55.49;101631.05;1667651;85;21186;-48
2021/04/26 00:12:41;;;;;;;3.55;2.20;;;;;;;15.08;55.42;101634.09;1665707;85;21175;-48
2021/04/26 00:15:21;;;;;;;4.95;2.70;;;;;;;15.10;55.34;101634.92;1670990;85;21151;-48
2021/04/26 00:17:51;;;;;;;4.90;2.10;;;;;;;15.10;55.23;101629.67;1650783;86;21170;-48
2021/04/26 00:20:22;;;;;;;6.37;2.20;;;;;;;15.09;55.23;101633.18;1670682;85;21395;-49
2021/04/26 00:22:50;;;;;;;3.08;1.80;;;;;;;15.09;55.24;101635.80;1648216;86;21327;-48
2021/04/26 00:25:18;;;;;;;3.70;2.00;;;;;;;15.08;55.30;101630.16;1672769;85;21185;-49
2021/04/26 00:27:47;;;;;;;5.65;2.30;;;;;;;15.08;55.48;101627.55;1650892;86;21254;-48
2021/04/26 00:30:18;;;;;;;6.72;2.42;;;;;;;15.09;55.51;101622.69;1668196;85;21202;-48
2021/04/26 00:32:46;;;;;;;8.80;2.83;;;;;;;15.12;55.59;101620.01;1648409;86;21647;-48
2021/04/26 00:35:15;;;;;;;3.70;2.20;;;;;;;15.12;55.71;101620.01;1718048;82;21158;-48
2021/04/26 00:37:44;;;;;;;2.33;2.08;;;;;;;15.10;55.87;101620.50;1727025;82;21113;-48
2021/04/26 00:40:14;;;;;;;4.53;2.22;;;;;;;15.09;56.01;101618.77;1735524;82;21612;-49
2021/04/26 00:42:42;;;;;;;6.05;2.50;;;;;;;15.06;56.09;101615.80;1739480;82;21176;-48
2021/04/26 00:45:14;;;;;;;4.97;2.42;;;;;;;15.04;56.26;101620.66;1734045;82;21164;-48
2021/04/26 00:47:43;;;;;;;;;;;;;;;15.05;56.33;101627.17;1737267;82;21160;-49
2021/04/26 00:50:14;;;;;;;7.47;2.27;;;;;;;15.06;56.29;101619.73;1730964;82;20142;-48
2021/04/26 00:52:44;;;;;;;4.72;2.27;;;;;;;15.06;56.35;101618.86;1735945;82;21165;-48
2021/04/26 00:55:13;;;;;;;5.87;2.08;;;;;;;15.04;56.45;101616.73;1735460;82;21148;-48
2021/04/26 00:57:41;;;;;;;8.28;2.17;;;;;;;15.02;56.50;101617.22;1733813;82;21164;-48
2021/04/26 01:00:10;;;;;;;9.95;2.20;;;;;;;14.98;56.61;101614.27;1718682;82;21149;-48
2021/04/26 01:02:40;;;;;;;5.33;2.45;;;;;;;14.97;56.59;101616.47;1732350;82;21125;-48
2021/04/26 01:05:12;;;;;;;8.60;2.87;;;;;;;14.98;56.59;101618.20;1732325;82;21157;-48
2021/04/26 01:07:40;;;;;;;5.37;2.40;;;;;;;14.99;56.45;101616.84;1732289;82;21182;-48
2021/04/26 01:10:10;;;;;;;4.50;2.25;;;;;;;15.01;56.16;101610.24;1732336;82;21188;-48
2021/04/26 01:12:46;;;;;;;5.20;2.33;;;;;;;14.99;55.93;101608.11;1708498;82;21231;-48
2021/04/26 01:15:27;;;;;;;5.92;2.08;;;;;;;14.96;55.84;101603.80;1733018;82;21153;-48
2021/04/26 01:18:12;;;;;;;5.85;2.37;;;;;;;14.93;55.93;101601.73;1713342;82;21112;-48
2021/04/26 01:21:37;;;;;;;6.50;2.52;;;;;;;14.91;55.90;101607.02;1734680;82;21137;-48
2021/04/26 01:24:31;;;;;;;7.90;2.92;;;;;;;14.92;55.75;101602.64;1742948;82;21597;-48
2021/04/26 01:27:11;;;;;;;4.65;2.40;;;;;;;14.94;55.80;101598.22;1810213;79;23550;-49
2021/04/26 01:30:09;;;;;;;7.15;2.27;;;;;;;14.87;55.94;101591.41;1774082;80;21168;-50
2021/04/26 01:33:22;;;;;;;3.35;2.17;;;;;;;14.87;56.00;101580.48;1807332;79;23442;-49
2021/04/26 01:36:02;;;;;;;5.47;2.67;;;;;;;14.85;56.22;101574.86;1771665;79;23099;-49
2021/04/26 01:38:39;;;;;;;9.60;2.75;;;;;;;14.79;56.39;101578.52;1740018;82;21136;-49
2021/04/26 01:41:08;;;;;;;4.53;2.40;;;;;;;14.78;56.41;101571.54;1709331;83;21238;-49
2021/04/26 01:43:36;;;;;;;5.95;2.30;;;;;;;14.77;56.38;101574.20;1708856;84;21189;-49
2021/04/26 01:46:07;;;;;;;7.45;2.30;;;;;;;14.74;56.42;101575.58;1695183;84;21187;-49
2021/04/26 01:48:43;;;;;;;;;;;;;;;14.70;56.47;101572.19;1711409;83;21197;-48
2021/04/26 01:51:11;;;;;;;3.25;2.25;;;;;;;14.68;56.57;101578.78;1709019;84;20215;-48
2021/04/26 01:53:39;;;;;;;5.70;2.75;;;;;;;14.66;56.63;101574.48;1708899;84;21176;-48
2021/04/26 01:56:09;;;;;;;5.92;2.80;;;;;;;14.66;56.50;101575.78;1709078;84;21164;-49
2021/04/26 01:58:45;;;;;;;6.22;2.80;;;;;;;14.66;56.33;101575.34;1708992;84;21201;-48
2021/04/26 02:01:15;;;;;;;5.28;2.58;;;;;;;14.66;56.17;101569.23;1709025;84;21630;-48
2021/04/26 02:03:50;;;;;;;5.42;2.37;;;;;;;14.63;56.02;101570.17;1708823;84;21193;-48
2021/04/26 02:06:23;;;;;;;8.45;2.85;;;;;;;14.66;55.98;101561.38;1770589;79;23046;-49
2021/04/26 02:09:11;;;;;;;5.17;2.40;;;;;;;14.59;56.07;101557.19;1734616;82;21164;-49
2021/04/26 02:11:40;;;;;;;6.65;2.87;;;;;;;14.56;56.25;101555.53;1743942;81;21129;-49
2021/04/26 02:14:11;;;;;;;6.22;2.65;;;;;;;14.54;56.30;101559.95;1703531;83;21561;-49
2021/04/26 02:16:39;;;;;;;6.37;2.58;;;;;;;14.51;56.31;101560.01;1714649;82;21569;-49
2021/04/26 02:19:07;;;;;;;6.15;2.50;;;;;;;14.50;56.22;101560.05;1727239;82;21160;-49
2021/04/26 02:21:35;;;;;;;4.85;2.62;;;;;;;14.47;56.12;101555.75;1732735;82;21188;-49
2021/04/26 02:24:05;;;;;;;5.12;2.62;;;;;;;14.45;56.03;101545.76;1744599;82;21181;-50
2021/04/26 02:26:34;;;;;;;5.25;2.75;;;;;;;14.47;55.91;101549.64;1732910;82;21156;-49
2021/04/26 02:29:04;;;;;;;6.72;2.80;;;;;;;14.45;55.86;101541.83;1741415;82;21573;-49
2021/04/26 02:31:35;;;;;;;4.30;2.20;;;;;;;14.43;55.56;101538.39;1736799;81;21168;-49
2021/04/26 02:34:15;;;;;;;4.78;2.58;;;;;;;14.40;55.19;101545.47;1737676;82;21187;-49
2021/04/26 02:36:49;;;;;;;8.60;2.87;;;;;;;14.35;54.34;101541.66;1732928;82;21144;-49
2021/04/26 02:39:17;;;;;;;4.25;2.15;;;;;;;14.29;53.75;101543.11;1739056;82;21117;-49
2021/04/26 02:41:45;;;;;;;4.28;2.62;;;;;;;14.24;53.39;101547.55;1734444;82;21125;-49
2021/04/26 02:44:24;;;;;;;6.08;2.65;;;;;;;14.22;53.27;101546.73;1708612;82;21568;-49
2021/04/26 02:47:00;;;;;;;6.67;2.47;;;;;;;14.21;53.18;101550.27;1742026;82;21125;-49
2021/04/26 02:49:29;;;;;;;4.83;2.52;;;;;;;14.20;53.10;101556.38;1702478;83;21624;-49
2021/04/26 02:52:00;;;;;;;4.30;2.50;;;;;;;14.21;52.79;101547.64;1704307;83;21613;-49
2021/04/26 02:54:28;;;;;;;2.35;2.00;;;;;;;14.24;52.86;101559.81;1659803;83;21624;-49
2021/04/26 02:56:57;;;;;;;3.50;2.15;;;;;;;14.22;52.59;101561.60;1698368;83;21241;-50
2021/04/26 02:59:27;;;;;;;4.55;2.35;;;;;;;14.21;52.43;101568.59;1701909;83;21197;-49
2021/04/26 03:01:57;;;;;;;5.03;2.47;;;;;;;14.15;52.44;101558.27;1682135;83;21152;-49
2021/04/26 03:04:34;;;;;;;6.10;3.08;;;;;;;14.16;52.85;101549.50;1757131;79;28417;-49
2021/04/26 03:07:05;;;;;;;5.85;2.25;;;;;;;14.16;53.07;101549.50;1734529;82;21145;-49
2021/04/26 03:09:45;;;;;;;7.17;2.60;;;;;;;14.26;53.00;101548.37;1735362;82;21302;-49
2021/04/26 03:12:13;;;;;;;4.37;2.45;;;;;;;14.25;53.19;101537.95;1671472;85;21256;-49
2021/04/26 03:14:44;;;;;;;4.22;2.42;;;;;;;14.25;53.34;101537.52;1652541;84;21223;-49
2021/04/26 03:17:12;;;;;;;3.08;2.50;;;;;;;14.25;53.39;101527.48;1669206;85;21211;-49
2021/04/26 03:19:42;;;;;;;5.20;2.20;;;;;;;14.23;53.28;101526.66;1629948;85;21167;-49
2021/04/26 03:22:10;;;;;;;3.30;2.10;;;;;;;14.21;53.14;101531.94;1672843;85;21179;-49
2021/04/26 03:24:41;;;;;;;4.25;2.50;;;;;;;14.21;53.06;101541.55;1633546;85;21276;-49
2021/04/26 03:27:09;;;;;;;7.80;2.50;;;;;;;14.19;53.05;101542.90;1669423;85;21160;-49
2021/04/26 03:29:37;;;;;;;4.87;2.25;;;;;;;14.21;53.02;101545.03;1672283;85;21266;-49
2021/04/26 03:32:06;;;;;;;5.67;2.42;;;;;;;14.23;52.72;101540.62;1675021;85;21330;-49
2021/04/26 03:34:40;;;;;;;3.27;2.20;;;;;;;14.23;52.42;101543.67;1671695;85;21406;-49
2021/04/26 03:37:15;;;;;;;5.20;3.15;;;;;;;14.23;52.35;101544.98;1716873;82;21163;-49
2021/04/26 03:39:45;;;;;;;5.25;2.60;;;;;;;14.22;52.26;101554.59;1694733;83;21282;-49
2021/04/26 03:42:17;;;;;;;4.30;2.60;;;;;;;14.22;52.07;101562.44;1698243;83;21215;-49
2021/04/26 03:44:47;;;;;;;6.05;2.33;;;;;;;14.22;52.01;101562.91;1698453;83;21172;-49
2021/04/26 03:47:25;;;;;;;4.28;2.20;;;;;;;14.21;52.02;101569.89;1694852;83;21180;-49
2021/04/26 03:50:12;;;;;;;3.17;2.10;;;;;;;14.20;51.94;101577.31;1698200;83;21163;-49
2021/04/26 03:52:59;;;;;;;4.08;2.20;;;;;;;14.22;51.77;101572.91;1688521;83;21143;-49
2021/04/26 03:55:45;;;;;;;8.43;2.85;;;;;;;14.27;51.45;101567.12;1689843;83;21340;-49
2021/04/26 03:58:14;;;;;;;7.10;2.70;;;;;;;14.34;51.34;101573.12;1689474;84;21324;-49
2021/04/26 04:00:42;;;;;;;6.50;2.62;;;;;;;14.38;51.13;101598.33;1660209;85;21624;-49
2021/04/26 04:03:13;;;;;;;3.77;2.08;;;;;;;14.40;49.76;101593.47;1697329;83;21306;-49
2021/04/26 04:05:43;;;;;;;;;;;;;;;14.39;48.33;101586.50;1654753;85;21157;-47
2021/04/26 04:08:31;;;;;;;5.95;2.60;;;;;;;14.40;47.87;101589.55;1644032;85;20544;-47
2021/04/26 04:11:17;;;;;;;4.20;1.90;;;;;;;14.40;48.10;101574.27;1674750;84;21203;-48
2021/04/26 04:13:56;;;;;;;4.87;2.40;;;;;;;14.38;48.72;101569.52;1671356;84;21156;-48
2021/04/26 04:16:24;;;;;;;6.53;2.72;;;;;;;14.35;49.46;101569.14;1674219;84;21172;-48
2021/04/26 04:18:53;;;;;;;6.80;2.25;;;;;;;14.32;49.57;101571.82;1674322;84;21237;-48
2021/04/26 04:21:21;;;;;;;3.77;2.12;;;;;;;14.28;49.40;101567.56;1643621;85;21115;-48
2021/04/26 04:23:49;;;;;;;3.25;2.00;;;;;;;14.25;49.06;101575.47;1675087;84;21358;-48
2021/04/26 04:26:18;;;;;;;4.42;2.25;;;;;;;14.19;49.37;101575.62;1675678;84;21240;-48
2021/04/26 04:28:47;;;;;;;5.03;2.02;;;;;;;14.19;49.51;101567.77;1672578;84;21169;-48
2021/04/26 04:31:29;;;;;;;6.83;2.52;;;;;;;14.22;49.26;101559.82;1770749;79;23089;-49
2021/04/26 04:33:59;;;;;;;4.22;2.20;;;;;;;14.17;49.41;101556.47;1659810;85;21217;-49
2021/04/26 04:36:52;;;;;;;8.50;2.22;;;;;;;14.23;49.14;101573.34;1766005;79;23120;-49
2021/04/26 04:39:22;;;;;;;4.10;2.25;;;;;;;14.22;49.39;101572.08;1667037;85;21205;-49
2021/04/26 04:42:15;;;;;;;6.22;2.42;;;;;;;14.29;49.47;101569.30;1814622;79;23082;-48
2021/04/26 04:44:44;;;;;;;7.37;2.47;;;;;;;14.24;49.20;101565.87;1788526;80;21160;-48
2021/04/26 04:47:14;;;;;;;5.50;2.25;;;;;;;14.24;49.43;101564.57;1782621;80;21108;-48
2021/04/26 04:49:42;;;;;;;5.50;2.33;;;;;;;14.25;49.82;101565.00;1784559;80;21136;-49
2021/04/26 04:52:10;;;;;;;4.08;2.17;;;;;;;14.22;50.09;101566.36;1784097;80;21608;-49
2021/04/26 04:54:39;;;;;;;6.33;2.22;;;;;;;14.19;49.96;101561.22;1758252;81;21176;-48
2021/04/26 04:57:09;;;;;;;5.97;2.70;;;;;;;14.18;49.96;101558.17;1709050;83;21600;-49
2021/04/26 04:59:38;;;;;;;4.55;2.50;;;;;;;14.16;50.10;101573.05;1745240;81;21197;-48
2021/04/26 05:02:08;;;;;;;4.62;2.50;;;;;;;14.17;50.30;101580.03;1709531;83;21617;-49
2021/04/26 05:04:55;;;;;;;5.37;2.22;;;;;;;14.19;50.30;101573.00;1752554;81;21200;-49
2021/04/26 05:07:41;;;;;;;5.28;2.30;;;;;;;14.22;49.99;101562.44;1713557;83;21149;-49
2021/04/26 05:10:28;;;;;;;5.45;2.50;;;;;;;14.29;49.74;101574.53;1713250;83;21128;-49
2021/04/26 05:13:14;;;;;;;7.87;2.87;;;;;;;14.36;49.56;101572.16;1731513;82;21166;-50
2021/04/26 05:15:43;;;;;;;5.95;3.00;;;;;;;14.43;49.65;101588.14;1742376;81;21127;-49
2021/04/26 05:18:13;;;;;;;5.35;2.45;;;;;;;14.53;49.33;101592.25;1746171;81;21590;-49
2021/04/26 05:20:41;;;;;;;6.10;2.80;;;;;;;14.62;49.12;101586.80;1741640;81;21206;-50
2021/04/26 05:23:10;;;;;;;6.87;2.80;;;;;;;14.66;49.38;101593.69;1726774;83;21178;-48
2021/04/26 05:25:38;;;;;;;4.42;2.80;;;;;;;14.72;49.78;101593.09;1745544;81;21240;-49
2021/04/26 05:28:06;;;;;;;6.03;3.80;;;;;;;14.77;49.79;101596.48;1743553;81;21158;-50
2021/04/26 05:30:34;;;;;;;17.07;7.95;;;;;;;14.84;50.20;101598.05;1714107;81;21183;-49
2021/04/26 05:33:03;;;;;;;12.20;5.72;;;;;;;14.88;50.83;101589.21;1741826;81;21166;-49
2021/04/26 05:35:48;;;;;;;5.10;3.30;;;;;;;14.97;51.73;101586.33;1743737;81;21142;-50
2021/04/26 05:38:18;;;;;;;6.67;2.90;;;;;;;15.16;51.66;101587.56;1738995;81;21187;-47
2021/04/26 05:40:48;;;;;;;4.72;2.70;;;;;;;15.40;51.25;101582.94;1737927;81;21167;-50
2021/04/26 05:43:17;;;;;;;4.53;2.50;;;;;;;15.61;51.05;101585.43;1767994;81;21125;-49
2021/04/26 05:45:47;;;;;;;4.47;3.22;;;;;;;15.76;50.25;101574.05;1747957;81;21605;-48
2021/04/26 05:48:19;;;;;;;3.55;2.70;;;;;;;15.86;49.58;101575.48;1763999;81;21149;-47
2021/04/26 05:50:50;;;;;;;4.83;2.67;;;;;;;15.97;49.16;101583.88;1735898;82;21204;-48
2021/04/26 05:53:18;;;;;;;3.60;2.85;;;;;;;16.00;48.55;101579.86;1697716;83;21133;-48
2021/04/26 05:55:46;;;;;;;6.22;2.80;;;;;;;16.02;48.96;101591.17;1771068;81;21133;-48
2021/04/26 05:58:14;;;;;;;4.20;2.80;;;;;;;16.19;48.64;101593.27;1753330;81;21271;-47
2021/04/26 06:00:42;;;;;;;3.65;2.47;;;;;;;16.35;47.56;101598.88;1766244;81;21200;-47
2021/04/26 06:03:10;;;;;;;3.47;2.85;;;;;;;16.45;47.06;101593.28;1771615;81;21161;-49
2021/04/26 06:05:38;;;;;;;3.75;2.67;;;;;;;16.49;46.33;101596.66;1728217;82;22337;-48
2021/04/26 06:08:08;;;;;;;6.85;2.27;;;;;;;16.51;45.50;101606.70;1762202;81;21153;-48
2021/04/26 06:10:36;;;;;;;5.30;3.20;;;;;;;16.45;44.65;101597.67;1766975;81;21161;-48
2021/04/26 06:13:06;;;;;;;5.47;4.60;;;;;;;16.34;44.48;101594.55;1768016;81;21153;-47
2021/04/26 06:15:34;;;;;;;4.70;3.33;;;;;;;16.26;44.30;101599.58;1767984;81;21121;-49
2021/04/26 06:18:18;;;;;;;8.55;3.08;;;;;;;16.14;44.03;101601.28;1771045;81;21161;-48
2021/04/26 06:20:48;;;;;;;7.28;3.30;;;;;;;16.02;44.11;101602.98;1757649;81;21121;-50
2021/04/26 06:23:16;;;;;;;4.85;2.92;;;;;;;15.90;44.40;101595.92;1778721;81;21136;-50
2021/04/26 06:25:45;;;;;;;6.55;3.20;;;;;;;15.81;44.38;101597.50;1765627;81;21149;-51
2021/04/26 06:28:14;;;;;;;6.67;3.77;;;;;;;15.72;44.68;101599.98;1757471;81;21172;-48
2021/04/26 06:30:43;;;;;;;7.20;3.45;;;;;;;15.66;44.92;101592.73;1769874;81;21144;-47
2021/04/26 06:33:15;;;;;;;5.72;3.40;;;;;;;15.60;45.54;101593.74;1769905;81;21209;-49
2021/04/26 06:35:45;;;;;;;;;;;;;;;15.60;45.85;101588.50;1706971;84;21611;-47
2021/04/26 06:38:12;;;;;;;3.55;2.85;;;;;;;15.59;45.96;101580.68;1681123;85;20454;-49
2021/04/26 06:40:41;;;;;;;4.47;3.40;;;;;;;15.56;46.09;101584.25;1719474;82;21161;-47
2021/04/26 06:43:10;;;;;;;5.50;3.40;;;;;;;15.54;46.14;101583.43;1730285;82;21172;-49
2021/04/26 06:45:39;;;;;;;5.10;4.10;;;;;;;15.51;46.54;101582.23;1731259;82;21177;-47
2021/04/26 06:48:08;;;;;;;4.72;3.77;;;;;;;15.48;46.77;101580.98;1725944;82;21221;-49
2021/04/26 06:50:36;;;;;;;7.22;4.40;;;;;;;15.46;46.78;101588.05;1717590;82;21140;-50
2021/04/26 06:53:04;;;;;;;4.85;4.08;;;;;;;15.45;46.92;101585.03;1680887;85;21408;-49
2021/04/26 06:55:32;;;;;;;4.78;3.70;;;;;;;15.43;46.61;101585.52;1729268;82;21341;-49
2021/04/26 06:58:00;;;;;;;6.85;4.33;;;;;;;15.42;46.56;101589.91;1726119;82;21624;-49
2021/04/26 07:00:28;;;;;;;6.15;3.87;;;;;;;15.41;46.49;101587.30;1728719;82;21184;-49
2021/04/26 07:02:56;;;;;;;8.60;3.90;;;;;;;15.40;46.60;101589.05;1731906;82;21212;-49
2021/04/26 07:05:24;;;;;;;5.58;3.85;;;;;;;15.41;46.43;101588.61;1726502;82;21121;-49
2021/04/26 07:07:52;;;;;;;6.47;4.17;;;;;;;15.44;46.67;101599.03;1736146;82;21302;-49
2021/04/26 07:10:20;;;;;;;11.73;4.03;;;;;;;15.47;46.79;101601.58;1732266;82;21137;-49
2021/04/26 07:12:48;;;;;;;5.28;4.25;;;;;;;15.52;46.84;101606.22;1680309;85;21640;-49
2021/04/26 07:15:17;;;;;;;4.67;4.17;;;;;;;15.56;46.65;101602.61;1733709;82;21169;-49
2021/04/26 07:17:44;;;;;;;7.22;4.97;;;;;;;15.64;46.62;101599.31;1728376;82;21133;-49
2021/04/26 07:20:14;;;;;;;5.30;3.98;;;;;;;15.84;46.65;101606.17;1680784;85;21163;-49
2021/04/26 07:22:42;;;;;;;7.83;4.85;;;;;;;16.22;46.52;101602.34;1723369;82;21133;-49
2021/04/26 07:25:12;;;;;;;6.90;4.55;;;;;;;16.69;45.97;101598.23;1680991;85;21189;-49
2021/04/26 07:27:40;;;;;;;7.42;4.53;;;;;;;17.15;45.20;101600.98;1727201;82;21168;-49
2021/04/26 07:30:10;;;;;;;5.22;4.72;;;;;;;17.58;44.46;101598.55;1680682;85;21169;-49
2021/04/26 07:32:37;;;;;;;7.05;5.05;;;;;;;17.93;43.51;101592.42;1731508;82;21161;-49
2021/04/26 07:35:07;;;;;;;5.55;4.67;;;;;;;18.16;43.20;101594.98;1750140;81;21160;-49
2021/04/26 07:37:37;;;;;;;7.05;4.47;;;;;;;18.35;42.98;101596.84;1753452;81;21169;-49
2021/04/26 07:40:07;;;;;;;9.05;4.62;;;;;;;18.52;42.53;101597.51;1775044;81;21327;-49
2021/04/26 07:42:35;;;;;;;7.70;5.10;;;;;;;18.65;42.36;101602.65;1781196;80;21172;-49
2021/04/26 07:45:05;;;;;;;7.75;4.90;;;;;;;18.75;41.99;101602.69;1742145;82;21621;-49
2021/04/26 07:47:33;;;;;;;5.97;4.83;;;;;;;18.82;41.59;101596.22;1779337;80;21146;-49
2021/04/26 07:50:01;;;;;;;6.83;5.25;;;;;;;18.88;41.36;101598.59;1780242;80;21640;-48
2021/04/26 07:52:31;;;;;;;11.33;4.90;;;;;;;18.93;41.24;101588.72;1768443;80;21199;-49
2021/04/26 07:54:58;;;;;;;4.75;4.20;;;;;;;18.99;41.05;101593.73;1719336;83;21568;-49
2021/04/26 07:57:27;;;;;;;7.28;4.83;;;;;;;19.05;40.95;101598.73;1778466;80;21156;-49
2021/04/26 07:59:55;;;;;;;5.08;4.53;;;;;;;19.07;40.84;101592.94;1715599;83;22414;-49
2021/04/26 08:02:23;;;;;;;5.90;4.95;;;;;;;19.08;40.77;101600.39;1712038;83;21302;-49
2021/04/26 08:04:51;;;;;;;5.70;5.15;;;;;;;19.05;40.87;101598.73;1770938;80;21144;-50
2021/04/26 08:07:19;;;;;;;7.20;5.05;;;;;;;19.02;40.65;101598.86;1734706;82;21312;-48
2021/04/26 08:09:47;;;;;;;6.60;4.75;;;;;;;18.98;40.91;101607.83;1705070;83;21585;-48
2021/04/26 08:12:15;;;;;;;5.45;4.65;;;;;;;18.94;41.08;101603.61;1760781;80;21545;-48
2021/04/26 08:14:42;;;;;;;5.10;4.60;;;;;;;18.95;41.55;101605.33;1774250;80;21144;-48
2021/04/26 08:17:10;;;;;;;5.15;4.62;;;;;;;19.00;42.05;101600.70;1779753;80;21164;-49
2021/04/26 08:19:39;;;;;;;6.53;4.95;;;;;;;19.08;42.19;101617.05;1763179;80;21295;-49
2021/04/26 08:22:09;;;;;;;4.67;4.17;;;;;;;19.18;41.91;101617.08;1779386;80;21159;-50
2021/04/26 08:24:37;;;;;;;5.05;4.30;;;;;;;19.28;41.20;101619.70;1772401;80;21152;-49
2021/04/26 08:27:06;;;;;;;6.97;5.47;;;;;;;19.40;40.12;101620.52;1784996;80;21169;-49
2021/04/26 08:29:34;;;;;;;4.15;3.75;;;;;;;19.42;39.78;101622.63;1775865;80;21286;-49
2021/04/26 08:32:04;;;;;;;4.67;4.08;;;;;;;19.45;39.81;101628.23;1765000;80;21211;-49
2021/04/26 08:34:32;;;;;;;5.15;4.37;;;;;;;19.44;39.56;101626.05;1785468;80;21148;-49
2021/04/26 08:37:00;;;;;;;5.12;4.62;;;;;;;19.40;39.63;101620.97;1718104;83;21158;-49
2021/04/26 08:39:28;;;;;;;7.17;5.20;;;;;;;19.32;39.79;101621.73;1782446;80;21140;-49
2021/04/26 08:41:56;;;;;;;6.17;5.33;;;;;;;19.22;40.90;101630.53;1778336;80;21609;-49
2021/04/26 08:44:25;;;;;;;7.53;4.67;;;;;;;19.18;40.88;101632.91;1767027;81;21157;-48
2021/04/26 08:46:55;;;;;;;5.70;4.78;;;;;;;19.19;40.53;101637.70;1679666;85;21188;-49
2021/04/26 08:49:23;;;;;;;6.75;5.00;;;;;;;19.13;40.67;101640.15;1739202;81;21160;-49
2021/04/26 08:51:52;;;;;;;5.72;5.12;;;;;;;19.09;40.30;101645.16;1768612;81;21121;-49
2021/04/26 08:54:20;;;;;;;7.17;5.58;;;;;;;19.06;40.77;101647.08;1771818;81;21145;-50
2021/04/26 08:56:48;;;;;;;6.90;6.00;;;;;;;19.05;40.58;101651.49;1768592;81;21150;-49
2021/04/26 08:59:16;;;;;;;5.92;4.65;;;;;;;19.04;40.85;101655.04;1771012;81;21608;-49
2021/04/26 09:01:49;;;;;;;7.20;5.65;;;;;;;19.04;40.61;101655.04;1768560;81;21189;-49
2021/04/26 09:04:17;;;;;;;6.83;6.00;;;;;;;19.04;39.90;101652.41;1768651;81;21294;-49
2021/04/26 09:07:04;;;;;;;4.80;3.50;;;;;;;19.01;39.68;101649.91;1766861;81;21160;-49
2021/04/26 09:09:42;;;;;;;3.72;3.17;;;;;;;18.98;38.43;101643.92;1766284;81;21279;-49
2021/04/26 09:12:13;;;;;;;2.20;2.00;;;;;;;18.85;38.60;101644.89;1769168;81;21573;-49
2021/04/26 09:14:48;;;;;;;2.98;1.67;;;;;;;18.79;37.52;101653.51;1722430;83;21118;-49
2021/04/26 09:17:33;;;;;;;1.98;1.72;;;;;;;18.67;37.35;101653.53;1770894;81;21562;-49
2021/04/26 09:20:19;;;;;;;5.53;3.55;;;;;;;18.56;37.18;101652.68;1722359;83;21161;-48
2021/04/26 09:22:54;;;;;;;2.30;2.10;;;;;;;18.50;37.33;101659.97;1769067;81;21134;-49
2021/04/26 09:25:32;;;;;;;2.10;1.90;;;;;;;18.44;36.88;101657.09;1768931;81;21106;-49
2021/04/26 09:28:14;;;;;;;2.90;1.70;;;;;;;18.37;36.73;101660.87;1722431;83;21189;-49
2021/04/26 09:30:51;;;;;;;2.47;1.42;;;;;;;18.32;37.05;101669.89;1766569;81;21303;-49
2021/04/26 09:33:27;;;;;;;1.82;1.47;;;;;;;18.27;36.95;101670.52;1769336;81;21141;-49
2021/04/26 09:36:04;;;;;;;1.85;1.72;;;;;;;18.22;37.65;101664.55;1679444;85;21189;-48
2021/04/26 09:38:43;;;;;;;2.52;2.00;;;;;;;18.20;38.03;101663.75;1764122;81;21278;-48
2021/04/26 09:41:28;;;;;;;4.37;2.08;;;;;;;18.15;37.78;101665.73;1766718;81;21152;-48
2021/04/26 09:44:09;;;;;;;2.80;2.25;;;;;;;17.99;38.15;101663.28;1765063;81;21140;-48
2021/04/26 09:46:51;;;;;;;4.10;2.80;;;;;;;17.86;38.67;101654.98;1685721;84;21157;-48
2021/04/26 09:49:25;;;;;;;6.30;3.00;;;;;;;17.79;39.63;101656.11;1762312;81;21294;-48
2021/04/26 09:51:58;;;;;;;7.00;3.08;;;;;;;17.61;40.48;101664.69;1680404;85;21657;-48
2021/04/26 09:54:43;;;;;;;3.12;2.37;;;;;;;17.39;41.00;101668.53;1807286;79;23082;-49
2021/04/26 09:57:13;;;;;;;2.50;2.15;;;;;;;17.19;41.03;101678.03;1775159;80;21556;-49
2021/04/26 09:59:42;;;;;;;28.50;4.62;;;;;;;17.12;40.92;101685.27;1781865;80;21148;-47
2021/04/26 10:02:11;;;;;;;2.77;2.30;;;;;;;17.12;41.27;101685.27;1779858;80;21136;-47
2021/04/26 10:04:40;;;;;;;3.50;2.75;;;;;;;17.14;40.47;101683.44;1777370;80;21582;-47
2021/04/26 10:07:11;;;;;;;3.95;2.60;;;;;;;17.13;40.76;101679.52;1747790;80;21145;-47
2021/04/26 10:09:41;;;;;;;4.17;2.90;;;;;;;17.12;41.16;101682.63;1748350;80;21155;-48
2021/04/26 10:12:10;;;;;;;3.58;2.25;;;;;;;17.07;41.05;101684.55;1776931;80;21148;-47
2021/04/26 10:14:41;;;;;;;2.52;2.33;;;;;;;16.97;41.00;101689.27;1776799;80;21164;-47
2021/04/26 10:17:14;;;;;;;2.90;1.72;;;;;;;16.90;40.61;101684.23;1772367;80;21156;-48
2021/04/26 10:19:50;;;;;;;3.35;2.08;;;;;;;16.82;41.32;101683.63;1775475;80;21215;-48
2021/04/26 10:22:40;;;;;;;3.70;1.90;;;;;;;16.80;41.63;101681.51;1777064;80;21176;-47
2021/04/26 10:25:14;;;;;;;3.35;2.22;;;;;;;16.82;41.98;101688.44;1760244;80;21155;-48
2021/04/26 10:27:45;;;;;;;2.35;1.90;;;;;;;16.83;42.35;101695.88;1776848;80;21286;-47
2021/04/26 10:30:17;;;;;;;2.40;2.15;;;;;;;16.82;42.11;101691.52;1776820;80;21144;-47
2021/04/26 10:33:06;;;;;;;1.95;1.72;;;;;;;16.77;42.29;101698.71;1775355;80;21585;-48
2021/04/26 10:35:47;;;;;;;2.33;1.90;;;;;;;16.76;43.04;101702.23;1776709;80;21175;-48
2021/04/26 10:38:46;;;;;;;2.58;1.60;;;;;;;16.72;44.93;101705.87;1732759;82;21602;-48
2021/04/26 10:41:52;;;;;;;4.58;1.80;;;;;;;16.66;45.49;101710.01;1730683;82;21173;-47
2021/04/26 10:44:50;;;;;;;2.72;1.57;;;;;;;16.64;45.30;101705.25;1810194;79;22982;-49
2021/04/26 10:47:35;;;;;;;1.45;1.20;;;;;;;16.54;44.67;101708.64;1773126;80;21164;-49
2021/04/26 10:50:12;;;;;;;4.30;1.37;;;;;;;16.49;44.92;101718.83;1699036;84;21172;-49
2021/04/26 10:52:46;;;;;;;1.82;1.40;;;;;;;16.43;44.94;101719.02;1687553;84;21670;-49
2021/04/26 10:55:25;;;;;;;1.75;1.27;;;;;;;16.42;44.98;101722.56;1810168;79;22975;-49
2021/04/26 10:57:59;;;;;;;2.60;1.15;;;;;;;16.37;45.79;101719.20;1784004;80;21668;-49
2021/04/26 11:00:39;;;;;;;1.25;1.15;;;;;;;16.37;45.58;101712.64;1769946;80;21148;-49
2021/04/26 11:03:13;;;;;;;2.67;1.47;;;;;;;16.37;45.05;101703.44;1776943;80;21112;-49
2021/04/26 11:05:46;;;;;;;1.32;1.10;;;;;;;16.30;45.69;101711.52;1777261;80;21147;-49
2021/04/26 11:08:36;;;;;;;1.00;1.00;;;;;;;16.17;45.63;101718.05;1776990;80;21180;-49
2021/04/26 11:11:22;;;;;;;1.77;1.22;;;;;;;16.07;46.15;101717.88;1776382;80;21160;-49
2021/04/26 11:13:55;;;;;;;2.55;1.20;;;;;;;16.01;46.96;101729.88;1738295;82;21159;-49
2021/04/26 11:16:39;;;;;;;1.60;1.15;;;;;;;16.10;46.91;101721.75;1771693;79;23055;-48
2021/04/26 11:19:10;;;;;;;0.65;0.62;;;;;;;16.15;46.69;101727.74;1719996;83;21162;-48
2021/04/26 11:21:49;;;;;;;3.67;0.95;;;;;;;16.27;46.76;101738.33;1700711;84;21623;-47
2021/04/26 11:24:30;;;;;;;0.70;0.70;;;;;;;16.37;45.75;101734.96;1712276;83;21147;-47
2021/04/26 11:27:19;;;;;;;1.05;0.95;;;;;;;16.33;45.59;101746.47;1700644;84;21599;-47
2021/04/26 11:29:53;;;;;;;1.15;0.65;;;;;;;16.19;45.61;101732.44;1708918;83;21190;-48
2021/04/26 11:32:26;;;;;;;4.85;0.98;;;;;;;16.04;45.39;101737.69;1706020;84;21255;-48
2021/04/26 11:35:05;;;;;;;0.60;0.55;;;;;;;16.01;46.05;101740.38;1810200;79;22166;-49
2021/04/26 11:37:37;;;;;;;0.72;0.70;;;;;;;15.99;46.70;101750.06;1784169;80;21160;-48
2021/04/26 11:40:17;;;;;;;4.00;0.65;;;;;;;16.03;46.58;101751.70;1766311;80;21167;-48
2021/04/26 11:42:45;;;;;;;0.53;0.53;;;;;;;16.11;46.45;101752.37;1775732;80;21176;-48
2021/04/26 11:45:14;;;;;;;1.00;0.62;;;;;;;16.24;46.51;101737.09;1781247;80;21179;-47
2021/04/26 11:47:43;;;;;;;1.30;0.72;;;;;;;16.38;45.54;101743.27;1780321;80;21152;-48
2021/04/26 11:50:11;;;;;;;0.70;0.65;;;;;;;16.44;45.00;101736.52;1777875;80;21144;-48
2021/04/26 11:52:39;;;;;;;0.65;0.62;;;;;;;16.44;44.93;101739.14;1777042;80;21160;-48